sensor_id;sensor_type;location;lat;lon;timestamp;P1;durP1;ratioP1;P2;durP2;ratioP2
41514;SDS011;27247;48.020;16.720;2022-07-29T00:03:45;17.33;;;8.90;;
41514;SDS011;27247;48.020;16.720;2022-07-29T00:07:55;10.65;;;9.50;;
41514;SDS011;27247;48.020;16.720;2022-07-29T00:12:06;14.68;;;9.63;;
41514;SDS011;27247;48.020;16.720;2022-07-29T00:16:16;13.70;;;9.63;;
41514;SDS011;27247;48.020;16.720;2022-07-29T00:20:27;12.38;;;9.98;;
41514;SDS011;27247;48.020;16.720;2022-07-29T00:24:37;12.20;;;9.43;;
41514;SDS011;27247;48.020;16.720;2022-07-29T00:28:48;10.67;;;8.77;;
41514;SDS011;27247;48.020;16.720;2022-07-29T00:32:58;10.10;;;8.40;;
41514;SDS011;27247;48.020;16.720;2022-07-29T00:37:08;8.93;;;7.33;;
41514;SDS011;27247;48.020;16.720;2022-07-29T00:41:18;8.43;;;7.00;;
41514;SDS011;27247;48.020;16.720;2022-07-29T00:45:29;11.30;;;6.82;;
41514;SDS011;27247;48.020;16.720;2022-07-29T00:49:40;7.22;;;6.53;;
41514;SDS011;27247;48.020;16.720;2022-07-29T00:53:52;10.88;;;6.97;;
41514;SDS011;27247;48.020;16.720;2022-07-29T00:58:02;7.22;;;6.15;;
41514;SDS011;27247;48.020;16.720;2022-07-29T01:02:13;12.30;;;7.15;;
41514;SDS011;27247;48.020;16.720;2022-07-29T01:06:23;9.10;;;6.63;;
41514;SDS011;27247;48.020;16.720;2022-07-29T01:10:34;7.20;;;6.20;;
41514;SDS011;27247;48.020;16.720;2022-07-29T01:14:48;6.70;;;6.10;;
41514;SDS011;27247;48.020;16.720;2022-07-29T01:19:00;8.00;;;6.07;;
41514;SDS011;27247;48.020;16.720;2022-07-29T01:32:43;8.52;;;6.43;;
41514;SDS011;27247;48.020;16.720;2022-07-29T01:37:03;8.73;;;6.30;;
41514;SDS011;27247;48.020;16.720;2022-07-29T01:41:18;8.25;;;6.32;;
41514;SDS011;27247;48.020;16.720;2022-07-29T01:45:37;9.15;;;6.45;;
41514;SDS011;27247;48.020;16.720;2022-07-29T01:49:51;10.60;;;6.38;;
41514;SDS011;27247;48.020;16.720;2022-07-29T01:58:24;8.52;;;6.47;;
41514;SDS011;27247;48.020;16.720;2022-07-29T02:02:35;10.30;;;6.45;;
41514;SDS011;27247;48.020;16.720;2022-07-29T02:06:49;10.68;;;6.97;;
41514;SDS011;27247;48.020;16.720;2022-07-29T02:11:02;9.40;;;7.03;;
41514;SDS011;27247;48.020;16.720;2022-07-29T02:15:14;10.57;;;7.45;;
41514;SDS011;27247;48.020;16.720;2022-07-29T02:19:27;10.75;;;7.25;;
41514;SDS011;27247;48.020;16.720;2022-07-29T02:23:39;10.90;;;7.32;;
41514;SDS011;27247;48.020;16.720;2022-07-29T02:27:50;9.88;;;7.50;;
41514;SDS011;27247;48.020;16.720;2022-07-29T02:32:02;8.32;;;6.47;;
41514;SDS011;27247;48.020;16.720;2022-07-29T02:36:14;9.63;;;7.18;;
41514;SDS011;27247;48.020;16.720;2022-07-29T02:40:26;10.30;;;7.32;;
41514;SDS011;27247;48.020;16.720;2022-07-29T02:44:36;10.95;;;6.78;;
41514;SDS011;27247;48.020;16.720;2022-07-29T02:48:48;10.48;;;7.15;;
41514;SDS011;27247;48.020;16.720;2022-07-29T02:53:14;10.57;;;5.85;;
41514;SDS011;27247;48.020;16.720;2022-07-29T02:57:32;7.93;;;6.55;;
41514;SDS011;27247;48.020;16.720;2022-07-29T03:01:44;13.00;;;7.18;;
41514;SDS011;27247;48.020;16.720;2022-07-29T03:05:56;7.15;;;6.25;;
41514;SDS011;27247;48.020;16.720;2022-07-29T03:10:09;10.48;;;7.13;;
41514;SDS011;27247;48.020;16.720;2022-07-29T03:14:20;10.27;;;6.63;;
41514;SDS011;27247;48.020;16.720;2022-07-29T03:18:31;11.32;;;7.28;;
41514;SDS011;27247;48.020;16.720;2022-07-29T03:22:42;8.57;;;7.03;;
41514;SDS011;27247;48.020;16.720;2022-07-29T03:26:56;9.85;;;6.93;;
41514;SDS011;27247;48.020;16.720;2022-07-29T03:31:07;10.73;;;6.90;;
41514;SDS011;27247;48.020;16.720;2022-07-29T03:35:18;8.23;;;6.20;;
41514;SDS011;27247;48.020;16.720;2022-07-29T03:39:31;7.82;;;6.20;;
41514;SDS011;27247;48.020;16.720;2022-07-29T03:43:44;9.82;;;7.05;;
41514;SDS011;27247;48.020;16.720;2022-07-29T03:47:59;11.18;;;6.07;;
41514;SDS011;27247;48.020;16.720;2022-07-29T03:52:12;13.07;;;7.05;;
41514;SDS011;27247;48.020;16.720;2022-07-29T03:56:25;6.47;;;5.82;;
41514;SDS011;27247;48.020;16.720;2022-07-29T04:00:38;10.82;;;6.80;;
41514;SDS011;27247;48.020;16.720;2022-07-29T04:04:50;8.80;;;6.05;;
41514;SDS011;27247;48.020;16.720;2022-07-29T04:09:01;9.35;;;6.68;;
41514;SDS011;27247;48.020;16.720;2022-07-29T04:13:11;9.73;;;6.07;;
41514;SDS011;27247;48.020;16.720;2022-07-29T04:17:21;9.03;;;6.60;;
41514;SDS011;27247;48.020;16.720;2022-07-29T04:21:36;8.53;;;6.10;;
41514;SDS011;27247;48.020;16.720;2022-07-29T04:25:50;10.75;;;6.38;;
41514;SDS011;27247;48.020;16.720;2022-07-29T04:30:00;6.90;;;6.20;;
41514;SDS011;27247;48.020;16.720;2022-07-29T04:34:11;9.48;;;5.60;;
41514;SDS011;27247;48.020;16.720;2022-07-29T04:38:22;7.88;;;5.68;;
41514;SDS011;27247;48.020;16.720;2022-07-29T04:42:33;11.73;;;6.32;;
41514;SDS011;27247;48.020;16.720;2022-07-29T04:46:43;11.43;;;6.20;;
41514;SDS011;27247;48.020;16.720;2022-07-29T04:50:53;15.27;;;6.40;;
41514;SDS011;27247;48.020;16.720;2022-07-29T04:55:04;7.97;;;6.23;;
41514;SDS011;27247;48.020;16.720;2022-07-29T04:59:15;8.57;;;6.22;;
41514;SDS011;27247;48.020;16.720;2022-07-29T05:03:25;8.70;;;6.30;;
41514;SDS011;27247;48.020;16.720;2022-07-29T05:07:36;7.33;;;5.67;;
41514;SDS011;27247;48.020;16.720;2022-07-29T05:11:46;5.95;;;5.35;;
41514;SDS011;27247;48.020;16.720;2022-07-29T05:15:56;7.33;;;5.53;;
41514;SDS011;27247;48.020;16.720;2022-07-29T05:20:08;7.97;;;6.00;;
41514;SDS011;27247;48.020;16.720;2022-07-29T05:24:18;10.57;;;5.60;;
41514;SDS011;27247;48.020;16.720;2022-07-29T05:28:32;6.93;;;5.83;;
41514;SDS011;27247;48.020;16.720;2022-07-29T05:32:43;8.98;;;5.63;;
41514;SDS011;27247;48.020;16.720;2022-07-29T05:36:53;8.70;;;5.40;;
41514;SDS011;27247;48.020;16.720;2022-07-29T05:41:04;6.87;;;6.17;;
41514;SDS011;27247;48.020;16.720;2022-07-29T05:45:16;8.88;;;5.68;;
41514;SDS011;27247;48.020;16.720;2022-07-29T05:49:26;7.13;;;6.03;;
41514;SDS011;27247;48.020;16.720;2022-07-29T05:53:37;8.83;;;5.90;;
41514;SDS011;27247;48.020;16.720;2022-07-29T05:57:47;6.03;;;5.05;;
41514;SDS011;27247;48.020;16.720;2022-07-29T06:01:57;8.53;;;5.27;;
41514;SDS011;27247;48.020;16.720;2022-07-29T06:06:08;7.13;;;6.20;;
41514;SDS011;27247;48.020;16.720;2022-07-29T06:10:18;6.07;;;5.47;;
41514;SDS011;27247;48.020;16.720;2022-07-29T06:14:29;8.97;;;5.70;;
41514;SDS011;27247;48.020;16.720;2022-07-29T06:18:39;13.38;;;6.32;;
41514;SDS011;27247;48.020;16.720;2022-07-29T06:22:50;5.27;;;4.53;;
41514;SDS011;27247;48.020;16.720;2022-07-29T06:27:00;8.52;;;5.72;;
41514;SDS011;27247;48.020;16.720;2022-07-29T06:31:10;10.27;;;5.97;;
41514;SDS011;27247;48.020;16.720;2022-07-29T06:35:21;7.00;;;5.00;;
41514;SDS011;27247;48.020;16.720;2022-07-29T06:39:31;11.00;;;5.63;;
41514;SDS011;27247;48.020;16.720;2022-07-29T06:43:44;9.57;;;5.10;;
41514;SDS011;27247;48.020;16.720;2022-07-29T06:47:55;11.65;;;5.13;;
41514;SDS011;27247;48.020;16.720;2022-07-29T06:52:06;12.48;;;5.55;;
41514;SDS011;27247;48.020;16.720;2022-07-29T06:56:16;6.93;;;5.10;;
41514;SDS011;27247;48.020;16.720;2022-07-29T07:00:27;8.47;;;5.73;;
41514;SDS011;27247;48.020;16.720;2022-07-29T07:04:37;11.37;;;5.07;;
41514;SDS011;27247;48.020;16.720;2022-07-29T07:08:47;10.73;;;5.40;;
41514;SDS011;27247;48.020;16.720;2022-07-29T07:12:57;5.97;;;4.80;;
41514;SDS011;27247;48.020;16.720;2022-07-29T07:17:08;6.95;;;4.93;;
41514;SDS011;27247;48.020;16.720;2022-07-29T07:21:19;20.13;;;10.03;;
41514;SDS011;27247;48.020;16.720;2022-07-29T07:25:29;10.48;;;5.85;;
41514;SDS011;27247;48.020;16.720;2022-07-29T07:29:40;7.38;;;5.47;;
41514;SDS011;27247;48.020;16.720;2022-07-29T07:33:51;6.40;;;5.80;;
41514;SDS011;27247;48.020;16.720;2022-07-29T07:38:03;8.32;;;5.53;;
41514;SDS011;27247;48.020;16.720;2022-07-29T07:42:13;10.02;;;4.85;;
41514;SDS011;27247;48.020;16.720;2022-07-29T07:46:23;10.60;;;5.57;;
41514;SDS011;27247;48.020;16.720;2022-07-29T07:50:34;7.30;;;5.40;;
41514;SDS011;27247;48.020;16.720;2022-07-29T07:54:44;7.30;;;5.53;;
41514;SDS011;27247;48.020;16.720;2022-07-29T07:58:54;5.50;;;5.00;;
41514;SDS011;27247;48.020;16.720;2022-07-29T08:03:05;5.87;;;5.30;;
41514;SDS011;27247;48.020;16.720;2022-07-29T08:07:15;6.60;;;5.25;;
41514;SDS011;27247;48.020;16.720;2022-07-29T08:11:25;7.90;;;5.10;;
41514;SDS011;27247;48.020;16.720;2022-07-29T08:15:36;9.65;;;5.20;;
41514;SDS011;27247;48.020;16.720;2022-07-29T08:19:46;6.13;;;4.70;;
41514;SDS011;27247;48.020;16.720;2022-07-29T08:23:58;8.43;;;4.55;;
41514;SDS011;27247;48.020;16.720;2022-07-29T08:28:27;12.40;;;4.55;;
41514;SDS011;27247;48.020;16.720;2022-07-29T08:32:37;8.77;;;4.70;;
41514;SDS011;27247;48.020;16.720;2022-07-29T08:36:48;6.78;;;4.70;;
41514;SDS011;27247;48.020;16.720;2022-07-29T08:40:59;10.80;;;4.87;;
41514;SDS011;27247;48.020;16.720;2022-07-29T08:45:11;10.73;;;4.82;;
41514;SDS011;27247;48.020;16.720;2022-07-29T08:49:22;5.28;;;4.78;;
41514;SDS011;27247;48.020;16.720;2022-07-29T08:53:32;6.68;;;4.20;;
41514;SDS011;27247;48.020;16.720;2022-07-29T08:57:43;7.10;;;4.25;;
41514;SDS011;27247;48.020;16.720;2022-07-29T09:01:54;5.18;;;4.38;;
41514;SDS011;27247;48.020;16.720;2022-07-29T09:06:09;6.15;;;4.07;;
41514;SDS011;27247;48.020;16.720;2022-07-29T09:10:23;7.53;;;4.25;;
41514;SDS011;27247;48.020;16.720;2022-07-29T09:14:34;5.55;;;4.57;;
41514;SDS011;27247;48.020;16.720;2022-07-29T09:18:45;8.97;;;4.57;;
41514;SDS011;27247;48.020;16.720;2022-07-29T09:22:56;6.40;;;4.55;;
41514;SDS011;27247;48.020;16.720;2022-07-29T09:27:22;5.10;;;4.23;;
41514;SDS011;27247;48.020;16.720;2022-07-29T09:31:37;6.68;;;4.00;;
41514;SDS011;27247;48.020;16.720;2022-07-29T09:36:04;9.98;;;3.65;;
41514;SDS011;27247;48.020;16.720;2022-07-29T09:49:05;7.88;;;4.03;;
41514;SDS011;27247;48.020;16.720;2022-07-29T09:53:33;3.95;;;3.50;;
41514;SDS011;27247;48.020;16.720;2022-07-29T09:57:48;13.30;;;4.28;;
41514;SDS011;27247;48.020;16.720;2022-07-29T10:01:58;4.73;;;3.50;;
41514;SDS011;27247;48.020;16.720;2022-07-29T10:06:10;4.35;;;3.67;;
41514;SDS011;27247;48.020;16.720;2022-07-29T10:10:24;7.82;;;3.30;;
41514;SDS011;27247;48.020;16.720;2022-07-29T10:14:36;5.70;;;3.08;;
41514;SDS011;27247;48.020;16.720;2022-07-29T10:18:47;5.72;;;3.65;;
41514;SDS011;27247;48.020;16.720;2022-07-29T10:22:57;7.30;;;3.67;;
41514;SDS011;27247;48.020;16.720;2022-07-29T10:27:08;5.07;;;3.13;;
41514;SDS011;27247;48.020;16.720;2022-07-29T10:31:21;3.55;;;3.10;;
41514;SDS011;27247;48.020;16.720;2022-07-29T10:39:54;3.42;;;2.90;;
41514;SDS011;27247;48.020;16.720;2022-07-29T10:44:40;7.13;;;3.70;;
41514;SDS011;27247;48.020;16.720;2022-07-29T10:53:22;6.40;;;3.80;;
41514;SDS011;27247;48.020;16.720;2022-07-29T10:57:33;6.82;;;3.53;;
41514;SDS011;27247;48.020;16.720;2022-07-29T11:01:47;5.80;;;3.40;;
41514;SDS011;27247;48.020;16.720;2022-07-29T11:05:59;4.25;;;3.50;;
41514;SDS011;27247;48.020;16.720;2022-07-29T11:15:23;5.60;;;3.35;;
41514;SDS011;27247;48.020;16.720;2022-07-29T11:23:32;4.38;;;3.47;;
41514;SDS011;27247;48.020;16.720;2022-07-29T11:27:48;6.18;;;3.70;;
41514;SDS011;27247;48.020;16.720;2022-07-29T11:32:12;3.97;;;3.53;;
41514;SDS011;27247;48.020;16.720;2022-07-29T11:36:25;6.53;;;4.05;;
41514;SDS011;27247;48.020;16.720;2022-07-29T11:40:35;8.02;;;3.50;;
41514;SDS011;27247;48.020;16.720;2022-07-29T11:49:06;4.93;;;3.83;;
41514;SDS011;27247;48.020;16.720;2022-07-29T11:53:18;5.90;;;3.67;;
41514;SDS011;27247;48.020;16.720;2022-07-29T11:57:29;5.18;;;3.60;;
41514;SDS011;27247;48.020;16.720;2022-07-29T12:01:51;11.30;;;5.18;;
41514;SDS011;27247;48.020;16.720;2022-07-29T12:06:03;5.07;;;3.50;;
41514;SDS011;27247;48.020;16.720;2022-07-29T12:10:23;7.72;;;4.10;;
41514;SDS011;27247;48.020;16.720;2022-07-29T12:14:40;6.80;;;3.25;;
41514;SDS011;27247;48.020;16.720;2022-07-29T12:18:59;9.93;;;3.47;;
41514;SDS011;27247;48.020;16.720;2022-07-29T12:23:10;6.32;;;3.40;;
41514;SDS011;27247;48.020;16.720;2022-07-29T12:27:24;4.65;;;3.55;;
41514;SDS011;27247;48.020;16.720;2022-07-29T12:31:35;3.83;;;3.20;;
41514;SDS011;27247;48.020;16.720;2022-07-29T12:35:49;4.50;;;3.47;;
41514;SDS011;27247;48.020;16.720;2022-07-29T12:40:05;5.85;;;3.28;;
41514;SDS011;27247;48.020;16.720;2022-07-29T12:44:16;7.22;;;4.63;;
41514;SDS011;27247;48.020;16.720;2022-07-29T12:52:47;3.72;;;3.20;;
41514;SDS011;27247;48.020;16.720;2022-07-29T12:56:58;3.33;;;3.03;;
41514;SDS011;27247;48.020;16.720;2022-07-29T13:01:11;6.55;;;3.53;;
41514;SDS011;27247;48.020;16.720;2022-07-29T13:05:24;4.28;;;3.83;;
41514;SDS011;27247;48.020;16.720;2022-07-29T13:09:49;4.05;;;3.65;;
41514;SDS011;27247;48.020;16.720;2022-07-29T13:13:59;10.15;;;3.60;;
41514;SDS011;27247;48.020;16.720;2022-07-29T13:22:40;6.43;;;3.33;;
41514;SDS011;27247;48.020;16.720;2022-07-29T13:26:52;9.75;;;3.38;;
41514;SDS011;27247;48.020;16.720;2022-07-29T13:31:02;7.20;;;3.70;;
41514;SDS011;27247;48.020;16.720;2022-07-29T13:35:13;23.98;;;5.28;;
41514;SDS011;27247;48.020;16.720;2022-07-29T13:39:23;4.93;;;3.90;;
41514;SDS011;27247;48.020;16.720;2022-07-29T13:43:34;7.40;;;3.93;;
41514;SDS011;27247;48.020;16.720;2022-07-29T13:47:44;6.28;;;3.60;;
41514;SDS011;27247;48.020;16.720;2022-07-29T13:51:54;5.57;;;3.33;;
41514;SDS011;27247;48.020;16.720;2022-07-29T13:56:05;9.07;;;3.80;;
41514;SDS011;27247;48.020;16.720;2022-07-29T14:00:18;15.27;;;4.35;;
41514;SDS011;27247;48.020;16.720;2022-07-29T14:04:29;5.00;;;3.53;;
41514;SDS011;27247;48.020;16.720;2022-07-29T14:08:39;3.97;;;3.67;;
41514;SDS011;27247;48.020;16.720;2022-07-29T14:12:50;4.60;;;3.80;;
41514;SDS011;27247;48.020;16.720;2022-07-29T14:17:00;8.90;;;4.30;;
41514;SDS011;27247;48.020;16.720;2022-07-29T14:21:12;14.82;;;4.68;;
41514;SDS011;27247;48.020;16.720;2022-07-29T14:25:23;8.17;;;4.33;;
41514;SDS011;27247;48.020;16.720;2022-07-29T14:29:34;11.70;;;4.40;;
41514;SDS011;27247;48.020;16.720;2022-07-29T14:33:44;12.43;;;6.32;;
41514;SDS011;27247;48.020;16.720;2022-07-29T14:37:54;10.38;;;6.60;;
41514;SDS011;27247;48.020;16.720;2022-07-29T14:42:05;13.70;;;7.40;;
41514;SDS011;27247;48.020;16.720;2022-07-29T14:46:15;22.50;;;10.77;;
41514;SDS011;27247;48.020;16.720;2022-07-29T14:50:25;17.73;;;9.90;;
41514;SDS011;27247;48.020;16.720;2022-07-29T14:54:36;15.27;;;8.53;;
41514;SDS011;27247;48.020;16.720;2022-07-29T14:58:46;13.77;;;10.07;;
41514;SDS011;27247;48.020;16.720;2022-07-29T15:02:57;13.75;;;9.70;;
41514;SDS011;27247;48.020;16.720;2022-07-29T15:07:08;14.77;;;9.88;;
41514;SDS011;27247;48.020;16.720;2022-07-29T15:11:18;11.63;;;9.20;;
41514;SDS011;27247;48.020;16.720;2022-07-29T15:15:29;15.70;;;11.00;;
41514;SDS011;27247;48.020;16.720;2022-07-29T15:19:39;15.15;;;9.38;;
41514;SDS011;27247;48.020;16.720;2022-07-29T15:23:49;17.43;;;9.53;;
41514;SDS011;27247;48.020;16.720;2022-07-29T15:28:00;13.88;;;9.30;;
41514;SDS011;27247;48.020;16.720;2022-07-29T15:32:12;13.35;;;10.20;;
41514;SDS011;27247;48.020;16.720;2022-07-29T15:36:23;12.77;;;9.10;;
41514;SDS011;27247;48.020;16.720;2022-07-29T15:40:34;11.83;;;10.57;;
41514;SDS011;27247;48.020;16.720;2022-07-29T15:44:46;11.32;;;9.73;;
41514;SDS011;27247;48.020;16.720;2022-07-29T15:48:56;14.23;;;10.48;;
41514;SDS011;27247;48.020;16.720;2022-07-29T15:53:06;12.07;;;10.07;;
41514;SDS011;27247;48.020;16.720;2022-07-29T15:57:17;13.63;;;10.57;;
41514;SDS011;27247;48.020;16.720;2022-07-29T16:01:27;12.23;;;9.57;;
41514;SDS011;27247;48.020;16.720;2022-07-29T16:05:37;13.38;;;10.00;;
41514;SDS011;27247;48.020;16.720;2022-07-29T16:09:48;13.80;;;9.30;;
41514;SDS011;27247;48.020;16.720;2022-07-29T16:13:58;11.93;;;10.03;;
41514;SDS011;27247;48.020;16.720;2022-07-29T16:18:08;16.10;;;9.93;;
41514;SDS011;27247;48.020;16.720;2022-07-29T16:22:19;13.45;;;8.82;;
41514;SDS011;27247;48.020;16.720;2022-07-29T16:26:29;12.03;;;8.67;;
41514;SDS011;27247;48.020;16.720;2022-07-29T16:30:40;13.40;;;8.88;;
41514;SDS011;27247;48.020;16.720;2022-07-29T16:34:50;9.50;;;8.47;;
41514;SDS011;27247;48.020;16.720;2022-07-29T16:39:01;12.95;;;9.18;;
41514;SDS011;27247;48.020;16.720;2022-07-29T16:43:11;10.73;;;8.83;;
41514;SDS011;27247;48.020;16.720;2022-07-29T16:47:21;9.67;;;8.17;;
41514;SDS011;27247;48.020;16.720;2022-07-29T16:51:32;9.82;;;7.82;;
41514;SDS011;27247;48.020;16.720;2022-07-29T16:55:42;10.67;;;8.40;;
41514;SDS011;27247;48.020;16.720;2022-07-29T16:59:52;12.80;;;8.97;;
41514;SDS011;27247;48.020;16.720;2022-07-29T17:04:03;10.37;;;8.07;;
41514;SDS011;27247;48.020;16.720;2022-07-29T17:08:16;12.10;;;7.13;;
41514;SDS011;27247;48.020;16.720;2022-07-29T17:12:26;10.80;;;7.30;;
41514;SDS011;27247;48.020;16.720;2022-07-29T17:16:36;10.83;;;7.20;;
41514;SDS011;27247;48.020;16.720;2022-07-29T17:20:47;9.67;;;7.10;;
41514;SDS011;27247;48.020;16.720;2022-07-29T17:24:57;10.47;;;6.73;;
41514;SDS011;27247;48.020;16.720;2022-07-29T17:29:08;9.77;;;6.67;;
41514;SDS011;27247;48.020;16.720;2022-07-29T17:33:18;7.65;;;6.47;;
41514;SDS011;27247;48.020;16.720;2022-07-29T17:37:29;8.83;;;7.47;;
41514;SDS011;27247;48.020;16.720;2022-07-29T17:41:39;10.27;;;7.63;;
41514;SDS011;27247;48.020;16.720;2022-07-29T17:45:49;8.40;;;7.47;;
41514;SDS011;27247;48.020;16.720;2022-07-29T17:50:00;10.07;;;7.20;;
41514;SDS011;27247;48.020;16.720;2022-07-29T17:54:11;9.50;;;7.10;;
41514;SDS011;27247;48.020;16.720;2022-07-29T17:58:21;8.80;;;7.40;;
41514;SDS011;27247;48.020;16.720;2022-07-29T18:02:31;10.63;;;7.73;;
41514;SDS011;27247;48.020;16.720;2022-07-29T18:06:42;10.40;;;9.33;;
41514;SDS011;27247;48.020;16.720;2022-07-29T18:10:52;9.07;;;7.87;;
41514;SDS011;27247;48.020;16.720;2022-07-29T18:15:03;9.85;;;7.35;;
41514;SDS011;27247;48.020;16.720;2022-07-29T18:19:13;10.70;;;8.07;;
41514;SDS011;27247;48.020;16.720;2022-07-29T18:23:25;9.93;;;8.93;;
41514;SDS011;27247;48.020;16.720;2022-07-29T18:27:35;10.80;;;9.18;;
41514;SDS011;27247;48.020;16.720;2022-07-29T18:31:45;9.27;;;8.20;;
41514;SDS011;27247;48.020;16.720;2022-07-29T18:35:56;10.83;;;9.43;;
41514;SDS011;27247;48.020;16.720;2022-07-29T18:40:06;14.23;;;11.10;;
41514;SDS011;27247;48.020;16.720;2022-07-29T18:44:17;11.05;;;9.95;;
41514;SDS011;27247;48.020;16.720;2022-07-29T18:48:30;12.25;;;10.93;;
41514;SDS011;27247;48.020;16.720;2022-07-29T18:52:41;12.43;;;11.10;;
41514;SDS011;27247;48.020;16.720;2022-07-29T18:56:52;13.43;;;10.00;;
41514;SDS011;27247;48.020;16.720;2022-07-29T19:01:02;16.27;;;12.13;;
41514;SDS011;27247;48.020;16.720;2022-07-29T19:05:12;11.80;;;10.60;;
41514;SDS011;27247;48.020;16.720;2022-07-29T19:09:23;12.80;;;11.23;;
41514;SDS011;27247;48.020;16.720;2022-07-29T19:13:33;14.47;;;11.97;;
41514;SDS011;27247;48.020;16.720;2022-07-29T19:17:43;15.20;;;12.05;;
41514;SDS011;27247;48.020;16.720;2022-07-29T19:21:55;12.82;;;11.30;;
41514;SDS011;27247;48.020;16.720;2022-07-29T19:26:06;16.25;;;12.35;;
41514;SDS011;27247;48.020;16.720;2022-07-29T19:30:16;13.77;;;11.87;;
41514;SDS011;27247;48.020;16.720;2022-07-29T19:34:27;13.90;;;12.45;;
41514;SDS011;27247;48.020;16.720;2022-07-29T19:38:38;15.07;;;12.80;;
41514;SDS011;27247;48.020;16.720;2022-07-29T19:42:48;14.13;;;12.20;;
41514;SDS011;27247;48.020;16.720;2022-07-29T19:47:00;13.75;;;12.32;;
41514;SDS011;27247;48.020;16.720;2022-07-29T19:51:11;15.52;;;13.32;;
41514;SDS011;27247;48.020;16.720;2022-07-29T19:55:21;15.95;;;12.30;;
41514;SDS011;27247;48.020;16.720;2022-07-29T19:59:32;13.88;;;12.48;;
41514;SDS011;27247;48.020;16.720;2022-07-29T20:03:43;15.67;;;12.33;;
41514;SDS011;27247;48.020;16.720;2022-07-29T20:07:53;15.75;;;12.93;;
41514;SDS011;27247;48.020;16.720;2022-07-29T20:12:04;17.98;;;12.68;;
41514;SDS011;27247;48.020;16.720;2022-07-29T20:16:15;16.52;;;12.20;;
41514;SDS011;27247;48.020;16.720;2022-07-29T20:20:25;16.13;;;13.00;;
41514;SDS011;27247;48.020;16.720;2022-07-29T20:24:38;14.05;;;12.52;;
41514;SDS011;27247;48.020;16.720;2022-07-29T20:28:49;13.75;;;11.95;;
41514;SDS011;27247;48.020;16.720;2022-07-29T20:32:59;18.47;;;13.10;;
41514;SDS011;27247;48.020;16.720;2022-07-29T20:37:09;17.40;;;14.37;;
41514;SDS011;27247;48.020;16.720;2022-07-29T20:41:22;15.10;;;13.52;;
41514;SDS011;27247;48.020;16.720;2022-07-29T20:45:32;20.77;;;14.43;;
41514;SDS011;27247;48.020;16.720;2022-07-29T20:49:45;17.10;;;13.90;;
41514;SDS011;27247;48.020;16.720;2022-07-29T20:53:55;19.25;;;14.18;;
41514;SDS011;27247;48.020;16.720;2022-07-29T20:58:06;15.95;;;13.40;;
41514;SDS011;27247;48.020;16.720;2022-07-29T21:02:16;16.93;;;13.93;;
41514;SDS011;27247;48.020;16.720;2022-07-29T21:06:26;15.70;;;14.07;;
41514;SDS011;27247;48.020;16.720;2022-07-29T21:10:37;18.90;;;14.90;;
41514;SDS011;27247;48.020;16.720;2022-07-29T21:14:47;18.70;;;16.03;;
41514;SDS011;27247;48.020;16.720;2022-07-29T21:18:58;19.40;;;16.08;;
41514;SDS011;27247;48.020;16.720;2022-07-29T21:23:08;19.20;;;16.23;;
41514;SDS011;27247;48.020;16.720;2022-07-29T21:27:18;16.37;;;14.67;;
41514;SDS011;27247;48.020;16.720;2022-07-29T21:31:47;16.98;;;14.65;;
41514;SDS011;27247;48.020;16.720;2022-07-29T21:35:59;17.13;;;15.23;;
41514;SDS011;27247;48.020;16.720;2022-07-29T21:40:10;19.35;;;14.95;;
41514;SDS011;27247;48.020;16.720;2022-07-29T21:44:21;16.85;;;15.10;;
41514;SDS011;27247;48.020;16.720;2022-07-29T21:48:31;16.53;;;14.57;;
41514;SDS011;27247;48.020;16.720;2022-07-29T21:52:42;17.77;;;14.33;;
41514;SDS011;27247;48.020;16.720;2022-07-29T21:56:52;20.03;;;15.53;;
41514;SDS011;27247;48.020;16.720;2022-07-29T22:01:02;20.20;;;15.43;;
41514;SDS011;27247;48.020;16.720;2022-07-29T22:05:13;19.02;;;15.88;;
41514;SDS011;27247;48.020;16.720;2022-07-29T22:09:24;19.13;;;15.15;;
41514;SDS011;27247;48.020;16.720;2022-07-29T22:13:34;18.55;;;15.48;;
41514;SDS011;27247;48.020;16.720;2022-07-29T22:17:44;15.47;;;13.63;;
41514;SDS011;27247;48.020;16.720;2022-07-29T22:21:55;21.03;;;16.63;;
41514;SDS011;27247;48.020;16.720;2022-07-29T22:26:05;22.02;;;16.80;;
41514;SDS011;27247;48.020;16.720;2022-07-29T22:30:16;19.50;;;15.70;;
41514;SDS011;27247;48.020;16.720;2022-07-29T22:34:26;18.42;;;14.40;;
41514;SDS011;27247;48.020;16.720;2022-07-29T22:38:37;19.45;;;17.20;;
41514;SDS011;27247;48.020;16.720;2022-07-29T22:42:47;16.55;;;14.20;;
41514;SDS011;27247;48.020;16.720;2022-07-29T22:46:58;17.13;;;14.15;;
41514;SDS011;27247;48.020;16.720;2022-07-29T22:51:08;21.27;;;16.63;;
41514;SDS011;27247;48.020;16.720;2022-07-29T22:55:19;18.30;;;15.10;;
41514;SDS011;27247;48.020;16.720;2022-07-29T22:59:29;16.77;;;14.77;;
41514;SDS011;27247;48.020;16.720;2022-07-29T23:03:40;20.70;;;14.77;;
41514;SDS011;27247;48.020;16.720;2022-07-29T23:07:50;17.25;;;13.50;;
41514;SDS011;27247;48.020;16.720;2022-07-29T23:12:00;18.50;;;15.53;;
41514;SDS011;27247;48.020;16.720;2022-07-29T23:16:11;17.73;;;14.97;;
41514;SDS011;27247;48.020;16.720;2022-07-29T23:20:21;17.15;;;14.40;;
41514;SDS011;27247;48.020;16.720;2022-07-29T23:24:31;22.90;;;16.00;;
41514;SDS011;27247;48.020;16.720;2022-07-29T23:28:42;18.07;;;15.37;;
41514;SDS011;27247;48.020;16.720;2022-07-29T23:32:54;22.67;;;17.40;;
41514;SDS011;27247;48.020;16.720;2022-07-29T23:37:04;22.13;;;18.33;;
41514;SDS011;27247;48.020;16.720;2022-07-29T23:41:14;26.33;;;21.13;;
41514;SDS011;27247;48.020;16.720;2022-07-29T23:45:25;24.60;;;20.45;;
41514;SDS011;27247;48.020;16.720;2022-07-29T23:49:35;25.10;;;18.87;;
41514;SDS011;27247;48.020;16.720;2022-07-29T23:53:45;22.70;;;19.87;;
41514;SDS011;27247;48.020;16.720;2022-07-29T23:57:56;27.35;;;21.58;;
